sensor_id;sensor_type;location;lat;lon;timestamp;pressure;altitude;pressure_sealevel;temperature;humidity
22775;BME280;11554;51.106;3.684;2023-05-01T00:00:00;101685.27;;;13.19;83.31
22775;BME280;11554;51.106;3.684;2023-05-01T00:05:00;101675.76000000001;;;13.15;83.69
22775;BME280;11554;51.106;3.684;2023-05-01T00:10:00;101677.48;;;13.10;84.03
22775;BME280;11554;51.106;3.684;2023-05-01T00:15:00;101667.85;;;13.09;83.8
22775;BME280;11554;51.106;3.684;2023-05-01T00:20:00;101669.06;;;13.01;83.96
22775;BME280;11554;51.106;3.684;2023-05-01T00:25:00;101660.5;;;12.98;84.11
22775;BME280;11554;51.106;3.684;2023-05-01T00:30:00;101651.73;;;12.90;84.38
22775;BME280;11554;51.106;3.684;2023-05-01T00:35:00;101646.26;;;12.83;84.65
22775;BME280;11554;51.106;3.684;2023-05-01T00:40:00;101640.62;;;12.78;85.29
22775;BME280;11554;51.106;3.684;2023-05-01T00:45:00;101634.75;;;12.71;85.3
22775;BME280;11554;51.106;3.684;2023-05-01T00:50:00;101622.38;;;12.64;85.67
22775;BME280;11554;51.106;3.684;2023-05-01T00:55:00;101617.22;;;12.56;85.75
22775;BME280;11554;51.106;3.684;2023-05-01T01:00:00;101609.61;;;12.49;85.84
22775;BME280;11554;51.106;3.684;2023-05-01T01:05:00;101598.35;;;12.44;86.05
22775;BME280;11554;51.106;3.684;2023-05-01T01:10:01;101591.71;;;12.41;86.38
22775;BME280;11554;51.106;3.684;2023-05-01T01:15:02;101583.29;;;12.36;86.7
22775;BME280;11554;51.106;3.684;2023-05-01T01:20:04;101574.03;;;12.40;86.5
22775;BME280;11554;51.106;3.684;2023-05-01T01:25:05;101572.34;;;12.34;86.46
22775;BME280;11554;51.106;3.684;2023-05-01T01:30:06;101564.78;;;12.28;87.63
22775;BME280;11554;51.106;3.684;2023-05-01T01:35:02;101558.8;;;12.26;87.73
22775;BME280;11554;51.106;3.684;2023-05-01T01:40:01;101553.76;;;12.21;87.67
22775;BME280;11554;51.106;3.684;2023-05-01T01:45:02;101547.94;;;12.18;88.13
22775;BME280;11554;51.106;3.684;2023-05-01T01:50:01;101536.31;;;12.14;88.17
22775;BME280;11554;51.106;3.684;2023-05-01T01:55:01;101527.63;;;12.10;88.21
22775;BME280;11554;51.106;3.684;2023-05-01T02:00:00;101520.12;;;12.11;88.54
22775;BME280;11554;51.106;3.684;2023-05-01T02:05:00;101514.21;;;12.19;87.95
22775;BME280;11554;51.106;3.684;2023-05-01T02:10:00;101509.12;;;12.17;88.11
22775;BME280;11554;51.106;3.684;2023-05-01T02:15:00;101507.7;;;12.09;88.08
22775;BME280;11554;51.106;3.684;2023-05-01T02:20:00;101504.98999999999;;;12.07;89.06
22775;BME280;11554;51.106;3.684;2023-05-01T02:25:00;101499.75;;;12.08;89.07
22775;BME280;11554;51.106;3.684;2023-05-01T02:30:00;101494.31;;;12.04;88.66
22775;BME280;11554;51.106;3.684;2023-05-01T02:35:00;101491.04999999999;;;11.98;87.48
22775;BME280;11554;51.106;3.684;2023-05-01T02:40:00;101492.04999999999;;;11.84;87.54
22775;BME280;11554;51.106;3.684;2023-05-01T02:45:01;101484.93999999999;;;11.75;87.25
22775;BME280;11554;51.106;3.684;2023-05-01T02:50:00;101480.1;;;11.71;89.02
22775;BME280;11554;51.106;3.684;2023-05-01T02:55:00;101479.78;;;11.67;88.89
22775;BME280;11554;51.106;3.684;2023-05-01T03:00:00;101478.3;;;11.57;88.44
22775;BME280;11554;51.106;3.684;2023-05-01T03:05:00;101468.76999999999;;;11.48;88.14
22775;BME280;11554;51.106;3.684;2023-05-01T03:10:00;101468.33;;;11.44;89.2
22775;BME280;11554;51.106;3.684;2023-05-01T03:15:00;101470.12;;;11.38;89.07
22775;BME280;11554;51.106;3.684;2023-05-01T03:20:00;101467.92;;;11.33;89.41
22775;BME280;11554;51.106;3.684;2023-05-01T03:25:00;101463.53;;;11.29;90.27
22775;BME280;11554;51.106;3.684;2023-05-01T03:30:00;101460.89;;;11.25;89.77
22775;BME280;11554;51.106;3.684;2023-05-01T03:35:00;101460.25;;;11.21;90.15
22775;BME280;11554;51.106;3.684;2023-05-01T03:40:00;101456.37000000001;;;11.20;90.71
22775;BME280;11554;51.106;3.684;2023-05-01T03:45:00;101452.03;;;11.17;91.57
22775;BME280;11554;51.106;3.684;2023-05-01T03:50:00;101456.7;;;11.08;91.16
22775;BME280;11554;51.106;3.684;2023-05-01T03:55:00;101455.54;;;11.07;92.68
22775;BME280;11554;51.106;3.684;2023-05-01T04:00:00;101457.42;;;11.02;92.5
22775;BME280;11554;51.106;3.684;2023-05-01T04:05:00;101458.4;;;11.01;93.14
22775;BME280;11554;51.106;3.684;2023-05-01T04:10:00;101456.54;;;11.02;94.51
22775;BME280;11554;51.106;3.684;2023-05-01T04:15:00;101452.86;;;10.98;93.89
22775;BME280;11554;51.106;3.684;2023-05-01T04:20:00;101456.66;;;10.95;93.41
22775;BME280;11554;51.106;3.684;2023-05-01T04:25:00;101453.25;;;10.98;94.32
22775;BME280;11554;51.106;3.684;2023-05-01T04:30:00;101455.29000000001;;;10.93;93.63
22775;BME280;11554;51.106;3.684;2023-05-01T04:35:00;101455.19;;;10.92;93.51
22775;BME280;11554;51.106;3.684;2023-05-01T04:40:00;101446.36;;;10.95;94.19
22775;BME280;11554;51.106;3.684;2023-05-01T04:45:00;101447.46;;;10.98;94.56
22775;BME280;11554;51.106;3.684;2023-05-01T04:50:00;101446.96;;;11.01;95.43
22775;BME280;11554;51.106;3.684;2023-05-01T04:55:00;101444.51000000001;;;11.02;96.05
22775;BME280;11554;51.106;3.684;2023-05-01T05:00:00;101447.61;;;11.04;96.34
22775;BME280;11554;51.106;3.684;2023-05-01T05:05:00;101445.73000000001;;;11.08;96.86
22775;BME280;11554;51.106;3.684;2023-05-01T05:10:00;101447.70999999999;;;11.11;95.5
22775;BME280;11554;51.106;3.684;2023-05-01T05:15:00;101449.79;;;11.22;95.48
22775;BME280;11554;51.106;3.684;2023-05-01T05:20:00;101460.17;;;11.40;96.51
22775;BME280;11554;51.106;3.684;2023-05-01T05:25:00;101469.8;;;11.62;97.39
22775;BME280;11554;51.106;3.684;2023-05-01T05:30:00;101473.08;;;11.82;98.48
22775;BME280;11554;51.106;3.684;2023-05-01T05:35:00;101477.29000000001;;;11.98;99.51
22775;BME280;11554;51.106;3.684;2023-05-01T05:40:00;101473.51999999999;;;12.13;100.0
22775;BME280;11554;51.106;3.684;2023-05-01T05:45:00;101474.86;;;12.34;100.0
22775;BME280;11554;51.106;3.684;2023-05-01T05:50:00;101468.12999999999;;;12.60;100.0
22775;BME280;11554;51.106;3.684;2023-05-01T05:55:00;101470.64;;;12.98;100.0
22775;BME280;11554;51.106;3.684;2023-05-01T06:00:00;101470.56;;;13.32;99.88
22775;BME280;11554;51.106;3.684;2023-05-01T06:05:00;101469.55;;;13.27;99.33
22775;BME280;11554;51.106;3.684;2023-05-01T06:10:00;101469.53;;;13.25;99.49
22775;BME280;11554;51.106;3.684;2023-05-01T06:15:00;101470.31;;;13.32;99.4
22775;BME280;11554;51.106;3.684;2023-05-01T06:20:00;101477.58;;;13.35;100.0
22775;BME280;11554;51.106;3.684;2023-05-01T06:25:00;101479.16;;;13.35;100.0
22775;BME280;11554;51.106;3.684;2023-05-01T06:30:00;101478.57;;;13.37;100.0
22775;BME280;11554;51.106;3.684;2023-05-01T06:35:00;101480.55;;;13.36;100.0
22775;BME280;11554;51.106;3.684;2023-05-01T06:40:00;101488.42;;;13.34;100.0
22775;BME280;11554;51.106;3.684;2023-05-01T06:45:00;101480.89;;;13.30;100.0
22775;BME280;11554;51.106;3.684;2023-05-01T06:50:00;101488.31;;;13.37;100.0
22775;BME280;11554;51.106;3.684;2023-05-01T06:55:00;101483.53;;;13.39;100.0
22775;BME280;11554;51.106;3.684;2023-05-01T07:00:00;101485.27;;;13.42;100.0
22775;BME280;11554;51.106;3.684;2023-05-01T07:05:00;101486.83;;;13.43;100.0
22775;BME280;11554;51.106;3.684;2023-05-01T07:10:00;101485.15;;;13.58;99.96
22775;BME280;11554;51.106;3.684;2023-05-01T07:15:00;101486.99;;;13.84;99.51
22775;BME280;11554;51.106;3.684;2023-05-01T07:20:00;101488.51;;;14.27;98.78
22775;BME280;11554;51.106;3.684;2023-05-01T07:25:00;101490.52;;;14.73;97.17
22775;BME280;11554;51.106;3.684;2023-05-01T07:30:01;101492.44;;;15.07;94.47
22775;BME280;11554;51.106;3.684;2023-05-01T07:35:00;101496.97;;;15.29;93.48
22775;BME280;11554;51.106;3.684;2023-05-01T07:40:00;101496.32;;;15.46;92.01
22775;BME280;11554;51.106;3.684;2023-05-01T07:45:00;101494.34;;;15.44;92.9
22775;BME280;11554;51.106;3.684;2023-05-01T07:50:00;101499.34;;;15.63;91.52
22775;BME280;11554;51.106;3.684;2023-05-01T07:55:00;101501.05;;;15.67;90.78
22775;BME280;11554;51.106;3.684;2023-05-01T08:00:00;101505.95;;;15.59;90.3
22775;BME280;11554;51.106;3.684;2023-05-01T08:05:00;101507.19;;;15.74;90.42
22775;BME280;11554;51.106;3.684;2023-05-01T08:10:00;101511.0;;;15.84;88.98
22775;BME280;11554;51.106;3.684;2023-05-01T08:15:00;101519.75;;;15.94;89.95
22775;BME280;11554;51.106;3.684;2023-05-01T08:20:00;101523.5;;;15.99;88.85
22775;BME280;11554;51.106;3.684;2023-05-01T08:25:00;101522.27;;;16.00;87.79
22775;BME280;11554;51.106;3.684;2023-05-01T08:30:00;101524.49;;;16.22;86.78
22775;BME280;11554;51.106;3.684;2023-05-01T08:35:00;101527.62;;;16.57;85.07
22775;BME280;11554;51.106;3.684;2023-05-01T08:40:00;101521.78;;;16.95;83.55
22775;BME280;11554;51.106;3.684;2023-05-01T08:45:00;101523.17;;;17.48;82.95
22775;BME280;11554;51.106;3.684;2023-05-01T08:50:00;101524.73;;;17.68;78.54
22775;BME280;11554;51.106;3.684;2023-05-01T08:55:00;101534.54000000001;;;17.55;76.34
22775;BME280;11554;51.106;3.684;2023-05-01T09:00:00;101538.62000000001;;;17.50;77.94
22775;BME280;11554;51.106;3.684;2023-05-01T09:05:00;101544.31;;;17.68;76.5
22775;BME280;11554;51.106;3.684;2023-05-01T09:10:00;101543.59;;;18.13;75.74
22775;BME280;11554;51.106;3.684;2023-05-01T09:15:01;101546.57999999999;;;18.40;74.93
22775;BME280;11554;51.106;3.684;2023-05-01T09:20:00;101551.59;;;18.50;73.1
22775;BME280;11554;51.106;3.684;2023-05-01T09:25:00;101549.87999999999;;;18.47;70.78
22775;BME280;11554;51.106;3.684;2023-05-01T09:30:00;101550.75;;;18.61;72.8
22775;BME280;11554;51.106;3.684;2023-05-01T09:35:08;101542.74;;;19.19;71.22
22775;BME280;11554;51.106;3.684;2023-05-01T09:40:02;101542.40999999999;;;20.06;70.98
22775;BME280;11554;51.106;3.684;2023-05-01T09:45:00;101551.95;;;21.26;69.34
22775;BME280;11554;51.106;3.684;2023-05-01T09:50:00;101548.20999999999;;;21.89;64.0
22775;BME280;11554;51.106;3.684;2023-05-01T10:00:00;101562.77;;;22.48;61.43
22775;BME280;11554;51.106;3.684;2023-05-01T10:05:00;101563.47;;;23.01;62.14
22775;BME280;11554;51.106;3.684;2023-05-01T10:15:00;101563.89;;;23.28;61.97
22775;BME280;11554;51.106;3.684;2023-05-01T10:20:00;101571.56;;;23.04;59.67
22775;BME280;11554;51.106;3.684;2023-05-01T10:25:00;101571.88;;;22.51;60.54
22775;BME280;11554;51.106;3.684;2023-05-01T10:30:01;101566.09;;;23.50;60.39
22775;BME280;11554;51.106;3.684;2023-05-01T10:35:01;101570.36;;;24.40;57.78
22775;BME280;11554;51.106;3.684;2023-05-01T10:40:10;101572.18000000001;;;23.44;58.24
22775;BME280;11554;51.106;3.684;2023-05-01T10:50:02;101580.12999999999;;;23.23;60.13
22775;BME280;11554;51.106;3.684;2023-05-01T11:05:00;101567.71;;;24.55;55.62
22775;BME280;11554;51.106;3.684;2023-05-01T11:10:00;101572.52;;;24.11;58.82
22775;BME280;11554;51.106;3.684;2023-05-01T11:15:01;101579.36;;;23.17;59.03
22775;BME280;11554;51.106;3.684;2023-05-01T11:20:00;101577.86;;;22.22;60.76
22775;BME280;11554;51.106;3.684;2023-05-01T11:25:00;101575.63;;;23.27;60.84
22775;BME280;11554;51.106;3.684;2023-05-01T11:30:00;101582.01000000001;;;23.30;59.88
22775;BME280;11554;51.106;3.684;2023-05-01T11:35:00;101576.73;;;24.05;58.7
22775;BME280;11554;51.106;3.684;2023-05-01T11:40:00;101578.27;;;23.42;58.25
22775;BME280;11554;51.106;3.684;2023-05-01T11:45:08;101576.79000000001;;;23.07;60.48
22775;BME280;11554;51.106;3.684;2023-05-01T11:50:00;101575.42;;;23.26;59.73
22775;BME280;11554;51.106;3.684;2023-05-01T11:55:00;101573.40000000001;;;24.41;57.42
22775;BME280;11554;51.106;3.684;2023-05-01T12:00:00;101577.36;;;24.11;57.92
22775;BME280;11554;51.106;3.684;2023-05-01T12:10:00;101577.33;;;24.52;56.87
22775;BME280;11554;51.106;3.684;2023-05-01T12:15:00;101587.87;;;24.95;54.72
22775;BME280;11554;51.106;3.684;2023-05-01T12:20:00;101579.63;;;23.88;56.25
22775;BME280;11554;51.106;3.684;2023-05-01T12:25:00;101575.08;;;23.86;54.85
22775;BME280;11554;51.106;3.684;2023-05-01T12:30:00;101575.25;;;24.36;57.22
22775;BME280;11554;51.106;3.684;2023-05-01T12:35:09;101583.18000000001;;;24.65;58.21
22775;BME280;11554;51.106;3.684;2023-05-01T12:40:00;101573.58;;;24.83;55.13
22775;BME280;11554;51.106;3.684;2023-05-01T12:45:00;101571.31000000001;;;24.41;55.89
22775;BME280;11554;51.106;3.684;2023-05-01T12:50:00;101573.20999999999;;;24.77;54.65
22775;BME280;11554;51.106;3.684;2023-05-01T12:55:01;101567.42;;;24.94;55.03
22775;BME280;11554;51.106;3.684;2023-05-01T13:00:01;101567.25;;;24.18;56.72
22775;BME280;11554;51.106;3.684;2023-05-01T13:05:04;101567.66;;;25.22;56.65
22775;BME280;11554;51.106;3.684;2023-05-01T13:10:02;101570.7;;;24.75;54.23
22775;BME280;11554;51.106;3.684;2023-05-01T13:15:00;101572.26000000001;;;25.39;54.21
22775;BME280;11554;51.106;3.684;2023-05-01T13:20:01;101585.56999999999;;;25.31;57.01
22775;BME280;11554;51.106;3.684;2023-05-01T13:25:00;101584.5;;;24.26;57.55
22775;BME280;11554;51.106;3.684;2023-05-01T13:30:00;101579.90999999999;;;24.80;60.03
22775;BME280;11554;51.106;3.684;2023-05-01T13:35:00;101581.76999999999;;;24.75;57.79
22775;BME280;11554;51.106;3.684;2023-05-01T13:40:00;101590.47;;;24.96;55.68
22775;BME280;11554;51.106;3.684;2023-05-01T13:45:00;101590.44;;;25.02;53.95
22775;BME280;11554;51.106;3.684;2023-05-01T13:50:00;101595.01000000001;;;25.73;52.52
22775;BME280;11554;51.106;3.684;2023-05-01T13:55:00;101594.72;;;24.99;55.06
22775;BME280;11554;51.106;3.684;2023-05-01T14:00:00;101601.39;;;24.68;54.22
22775;BME280;11554;51.106;3.684;2023-05-01T14:05:00;101597.74;;;24.82;54.1
22775;BME280;11554;51.106;3.684;2023-05-01T14:10:00;101599.71;;;24.62;54.22
22775;BME280;11554;51.106;3.684;2023-05-01T14:15:00;101595.32;;;24.38;54.58
22775;BME280;11554;51.106;3.684;2023-05-01T14:20:00;101601.76;;;23.98;55.52
22775;BME280;11554;51.106;3.684;2023-05-01T14:25:01;101613.44;;;23.44;55.98
22775;BME280;11554;51.106;3.684;2023-05-01T14:30:01;101610.55;;;23.44;57.87
22775;BME280;11554;51.106;3.684;2023-05-01T14:35:00;101601.15;;;23.52;58.18
22775;BME280;11554;51.106;3.684;2023-05-01T14:40:00;101610.76000000001;;;22.37;60.68
22775;BME280;11554;51.106;3.684;2023-05-01T14:45:00;101613.81;;;22.18;61.89
22775;BME280;11554;51.106;3.684;2023-05-01T14:50:00;101612.36;;;22.34;62.26
22775;BME280;11554;51.106;3.684;2023-05-01T14:55:00;101621.34;;;21.34;62.31
22775;BME280;11554;51.106;3.684;2023-05-01T15:00:00;101619.56999999999;;;20.72;64.36
22775;BME280;11554;51.106;3.684;2023-05-01T15:05:00;101629.15000000001;;;19.83;67.16
22775;BME280;11554;51.106;3.684;2023-05-01T15:10:00;101641.76999999999;;;19.39;68.89
22775;BME280;11554;51.106;3.684;2023-05-01T15:15:00;101645.06;;;19.23;69.9
22775;BME280;11554;51.106;3.684;2023-05-01T15:20:00;101645.28;;;19.29;69.36
22775;BME280;11554;51.106;3.684;2023-05-01T15:25:00;101638.78;;;19.22;70.56
22775;BME280;11554;51.106;3.684;2023-05-01T15:30:00;101643.26999999999;;;19.68;70.61
22775;BME280;11554;51.106;3.684;2023-05-01T15:35:00;101643.38;;;19.99;68.9
22775;BME280;11554;51.106;3.684;2023-05-01T15:40:00;101642.03;;;20.90;68.5
22775;BME280;11554;51.106;3.684;2023-05-01T15:45:01;101647.12;;;21.16;66.43
22775;BME280;11554;51.106;3.684;2023-05-01T15:50:00;101648.64;;;21.30;67.05
22775;BME280;11554;51.106;3.684;2023-05-01T15:55:00;101651.79000000001;;;21.67;65.58
22775;BME280;11554;51.106;3.684;2023-05-01T16:00:00;101656.95;;;21.78;64.52
22775;BME280;11554;51.106;3.684;2023-05-01T16:05:00;101659.06;;;21.37;63.76
22775;BME280;11554;51.106;3.684;2023-05-01T16:10:00;101658.70999999999;;;21.36;64.7
22775;BME280;11554;51.106;3.684;2023-05-01T16:15:00;101662.08;;;21.41;64.99
22775;BME280;11554;51.106;3.684;2023-05-01T16:20:00;101664.37;;;21.38;63.07
22775;BME280;11554;51.106;3.684;2023-05-01T16:25:00;101666.94;;;21.25;65.23
22775;BME280;11554;51.106;3.684;2023-05-01T16:30:02;101668.40999999999;;;20.63;65.34
22775;BME280;11554;51.106;3.684;2023-05-01T16:35:00;101668.45;;;20.95;65.91
22775;BME280;11554;51.106;3.684;2023-05-01T16:40:00;101679.71;;;20.78;65.52
22775;BME280;11554;51.106;3.684;2023-05-01T16:45:00;101679.22;;;20.90;66.56
22775;BME280;11554;51.106;3.684;2023-05-01T16:50:00;101685.35;;;20.70;64.9
22775;BME280;11554;51.106;3.684;2023-05-01T16:55:00;101699.33;;;20.55;66.89
22775;BME280;11554;51.106;3.684;2023-05-01T17:00:00;101705.02;;;20.26;66.83
22775;BME280;11554;51.106;3.684;2023-05-01T17:05:00;101713.78;;;20.11;67.49
22775;BME280;11554;51.106;3.684;2023-05-01T17:10:00;101713.17;;;20.07;68.06
22775;BME280;11554;51.106;3.684;2023-05-01T17:15:00;101718.25;;;19.59;66.58
22775;BME280;11554;51.106;3.684;2023-05-01T17:20:00;101719.62;;;19.33;67.83
22775;BME280;11554;51.106;3.684;2023-05-01T17:25:00;101721.77;;;19.25;69.38
22775;BME280;11554;51.106;3.684;2023-05-01T17:30:00;101731.61;;;18.58;70.82
22775;BME280;11554;51.106;3.684;2023-05-01T17:35:00;101732.64;;;18.12;72.65
22775;BME280;11554;51.106;3.684;2023-05-01T17:40:00;101732.62;;;17.79;74.12
22775;BME280;11554;51.106;3.684;2023-05-01T17:45:00;101733.31;;;17.48;75.09
22775;BME280;11554;51.106;3.684;2023-05-01T17:50:00;101736.53;;;17.22;75.93
22775;BME280;11554;51.106;3.684;2023-05-01T17:55:00;101744.76;;;16.88;76.86
22775;BME280;11554;51.106;3.684;2023-05-01T18:00:00;101748.92;;;16.64;77.91
22775;BME280;11554;51.106;3.684;2023-05-01T18:05:00;101762.17;;;16.30;79.8
22775;BME280;11554;51.106;3.684;2023-05-01T18:10:00;101757.78;;;16.10;80.58
22775;BME280;11554;51.106;3.684;2023-05-01T18:15:00;101760.36;;;15.89;81.77
22775;BME280;11554;51.106;3.684;2023-05-01T18:20:00;101768.98999999999;;;15.59;82.91
22775;BME280;11554;51.106;3.684;2023-05-01T18:25:00;101772.5;;;15.41;83.62
22775;BME280;11554;51.106;3.684;2023-05-01T18:30:00;101774.06;;;15.18;85.0
22775;BME280;11554;51.106;3.684;2023-05-01T18:35:00;101784.34;;;14.96;86.37
22775;BME280;11554;51.106;3.684;2023-05-01T18:40:00;101796.45000000001;;;14.73;86.98
22775;BME280;11554;51.106;3.684;2023-05-01T18:45:00;101805.78;;;14.50;87.47
22775;BME280;11554;51.106;3.684;2023-05-01T18:50:00;101812.08;;;14.24;88.81
22775;BME280;11554;51.106;3.684;2023-05-01T18:55:00;101809.74;;;14.02;88.85
22775;BME280;11554;51.106;3.684;2023-05-01T19:00:00;101814.78;;;13.77;88.92
22775;BME280;11554;51.106;3.684;2023-05-01T19:05:00;101822.55;;;13.55;89.66
22775;BME280;11554;51.106;3.684;2023-05-01T19:10:00;101824.56;;;13.36;90.71
22775;BME280;11554;51.106;3.684;2023-05-01T19:15:00;101831.66;;;13.21;92.35
22775;BME280;11554;51.106;3.684;2023-05-01T19:20:00;101842.40999999999;;;12.96;91.72
22775;BME280;11554;51.106;3.684;2023-05-01T19:25:00;101849.58;;;12.75;92.62
22775;BME280;11554;51.106;3.684;2023-05-01T19:30:00;101856.76;;;12.49;93.41
22775;BME280;11554;51.106;3.684;2023-05-01T19:35:00;101861.86;;;12.30;94.14
22775;BME280;11554;51.106;3.684;2023-05-01T19:40:00;101863.45999999999;;;12.11;94.16
22775;BME280;11554;51.106;3.684;2023-05-01T19:45:00;101870.36;;;11.92;93.34
22775;BME280;11554;51.106;3.684;2023-05-01T19:50:00;101888.2;;;11.74;94.08
22775;BME280;11554;51.106;3.684;2023-05-01T19:55:01;101886.32;;;11.59;94.37
22775;BME280;11554;51.106;3.684;2023-05-01T20:00:00;101895.2;;;11.42;94.28
22775;BME280;11554;51.106;3.684;2023-05-01T20:05:00;101896.03;;;11.36;96.63
22775;BME280;11554;51.106;3.684;2023-05-01T20:10:00;101903.06;;;11.36;99.05
22775;BME280;11554;51.106;3.684;2023-05-01T20:15:00;101910.11;;;11.17;98.72
22775;BME280;11554;51.106;3.684;2023-05-01T20:20:00;101913.03;;;11.02;97.76
22775;BME280;11554;51.106;3.684;2023-05-01T20:25:00;101930.02;;;10.92;99.95
22775;BME280;11554;51.106;3.684;2023-05-01T20:30:00;101919.76;;;10.80;99.84
22775;BME280;11554;51.106;3.684;2023-05-01T20:35:00;101912.01;;;10.65;99.24
22775;BME280;11554;51.106;3.684;2023-05-01T20:40:00;101908.98;;;10.50;99.97
22775;BME280;11554;51.106;3.684;2023-05-01T20:45:00;101910.44;;;10.33;97.87
22775;BME280;11554;51.106;3.684;2023-05-01T20:50:00;101919.44;;;10.25;100.0
22775;BME280;11554;51.106;3.684;2023-05-01T20:55:00;101919.17;;;10.11;99.87
22775;BME280;11554;51.106;3.684;2023-05-01T21:00:00;101930.3;;;9.96;100.0
22775;BME280;11554;51.106;3.684;2023-05-01T21:05:00;101938.72;;;9.95;100.0
22775;BME280;11554;51.106;3.684;2023-05-01T21:10:00;101940.88;;;9.81;100.0
22775;BME280;11554;51.106;3.684;2023-05-01T21:15:00;101936.37999999999;;;9.65;100.0
22775;BME280;11554;51.106;3.684;2023-05-01T21:20:00;101931.34;;;9.60;100.0
22775;BME280;11554;51.106;3.684;2023-05-01T21:25:00;101939.54;;;9.46;100.0
22775;BME280;11554;51.106;3.684;2023-05-01T21:30:00;101954.35;;;9.40;100.0
22775;BME280;11554;51.106;3.684;2023-05-01T21:35:00;101959.58;;;9.47;100.0
22775;BME280;11554;51.106;3.684;2023-05-01T21:40:00;101963.25;;;9.37;100.0
22775;BME280;11554;51.106;3.684;2023-05-01T21:45:03;101966.95999999999;;;9.39;100.0
22775;BME280;11554;51.106;3.684;2023-05-01T21:50:00;101969.31;;;9.34;100.0
22775;BME280;11554;51.106;3.684;2023-05-01T21:55:00;101978.06;;;9.22;100.0
22775;BME280;11554;51.106;3.684;2023-05-01T22:00:00;101975.84000000001;;;9.18;100.0
22775;BME280;11554;51.106;3.684;2023-05-01T22:05:00;101975.14;;;9.12;100.0
22775;BME280;11554;51.106;3.684;2023-05-01T22:10:00;101981.09;;;8.91;100.0
22775;BME280;11554;51.106;3.684;2023-05-01T22:15:00;101991.31;;;8.75;100.0
22775;BME280;11554;51.106;3.684;2023-05-01T22:20:00;101989.62;;;8.73;100.0
22775;BME280;11554;51.106;3.684;2023-05-01T22:25:00;101990.65000000001;;;8.76;100.0
22775;BME280;11554;51.106;3.684;2023-05-01T22:30:00;101992.92;;;8.67;100.0
22775;BME280;11554;51.106;3.684;2023-05-01T22:35:00;101994.05;;;8.55;100.0
22775;BME280;11554;51.106;3.684;2023-05-01T22:40:00;101999.22;;;8.46;100.0
22775;BME280;11554;51.106;3.684;2023-05-01T22:45:00;102002.27;;;8.48;100.0
22775;BME280;11554;51.106;3.684;2023-05-01T22:50:00;102008.86;;;8.55;100.0
22775;BME280;11554;51.106;3.684;2023-05-01T22:55:00;102014.81;;;8.58;100.0
22775;BME280;11554;51.106;3.684;2023-05-01T23:00:00;102020.36;;;8.70;100.0
22775;BME280;11554;51.106;3.684;2023-05-01T23:05:00;102024.91;;;8.78;100.0
22775;BME280;11554;51.106;3.684;2023-05-01T23:10:00;102040.81;;;8.91;100.0
22775;BME280;11554;51.106;3.684;2023-05-01T23:15:00;102053.27;;;9.15;100.0
22775;BME280;11554;51.106;3.684;2023-05-01T23:20:00;102061.21;;;9.23;100.0
22775;BME280;11554;51.106;3.684;2023-05-01T23:25:00;102067.66;;;9.31;100.0
22775;BME280;11554;51.106;3.684;2023-05-01T23:30:00;102076.64;;;9.37;100.0
22775;BME280;11554;51.106;3.684;2023-05-01T23:35:01;102078.51000000001;;;9.42;100.0
22775;BME280;11554;51.106;3.684;2023-05-01T23:40:00;102077.98;;;9.47;100.0
22775;BME280;11554;51.106;3.684;2023-05-01T23:45:00;102078.44;;;9.47;100.0
22775;BME280;11554;51.106;3.684;2023-05-01T23:50:00;102080.96;;;9.50;100.0
22775;BME280;11554;51.106;3.684;2023-05-01T23:55:00;102088.76000000001;;;9.53;100.0
